< < Back
Terminal Aerodrome Forecast


Current Version              Previous Versions:   1  2  3  4  5  6  7  8  9  

Terminal Aerodrome Forecast

381
FTUS42 KFFC 300134 AAA
TAFATL
TAF AMD
KATL 300134Z 3002/3106 12007KT P6SM FEW040
     FM300300 10004KT P6SM SKC
     FM300900 10004KT P6SM SCT012
     FM301400 14006KT P6SM SCT025
     FM302000 14007KT P6SM BKN035
     FM310200 15005KT P6SM FEW060=



Latest METAR

181
SAUS70 KWBC 300800 RRF
MTRATL
METAR KATL 300752Z 00000KT 10SM FEW250 21/16 A3014 RMK AO2 SLP197
T02060156


USA.gov is the U.S. government's official web portal to all federal, state and local government web resources and services.